createdAt,value
2022-08-27T00:00:22.583Z,17.84
2022-08-27T00:03:23.133Z,17.92
2022-08-27T00:04:55.745Z,17.92
2022-08-27T00:06:27.836Z,17.93
2022-08-27T00:07:36.508Z,17.97
2022-08-27T00:08:40.938Z,17.99
2022-08-27T00:09:53.923Z,18.00
2022-08-27T00:11:38.563Z,17.97
2022-08-27T00:12:42.856Z,17.96
2022-08-27T00:15:17.753Z,17.94
2022-08-27T00:16:22.197Z,17.96
2022-08-27T00:17:27.365Z,17.95
2022-08-27T00:18:31.410Z,17.94
2022-08-27T00:20:18.252Z,17.91
2022-08-27T00:21:23.059Z,17.82
2022-08-27T00:22:27.337Z,17.78
2022-08-27T00:23:39.747Z,17.74
2022-08-27T00:25:06.115Z,17.68
2022-08-27T00:26:41.361Z,17.66
2022-08-27T00:29:58.984Z,17.61
2022-08-27T00:35:24.534Z,17.43
2022-08-27T00:36:32.769Z,17.38
2022-08-27T00:39:44.643Z,17.38
2022-08-27T00:41:53.483Z,17.40
2022-08-27T00:42:58.567Z,17.43
2022-08-27T00:44:22.804Z,17.46
2022-08-27T00:45:28.232Z,17.54
2022-08-27T00:50:07.464Z,17.56
2022-08-27T00:53:18.909Z,17.58
2022-08-27T00:54:23.587Z,17.60
2022-08-27T00:56:17.075Z,17.67
2022-08-27T00:57:54.976Z,17.74
2022-08-27T01:05:11.990Z,18.20
2022-08-27T01:07:23.463Z,18.27
2022-08-27T01:08:59.660Z,18.31
2022-08-27T01:11:07.807Z,18.36
2022-08-27T01:14:53.193Z,18.33
2022-08-27T01:20:04.051Z,18.22
2022-08-27T01:21:32.670Z,18.21
2022-08-27T01:22:50.703Z,18.23
2022-08-27T01:25:01.009Z,18.25
2022-08-27T01:29:46.543Z,18.20
2022-08-27T01:30:56.281Z,18.19
2022-08-27T01:38:32.584Z,17.78
2022-08-27T01:40:28.317Z,17.60
2022-08-27T01:45:42.590Z,17.16
2022-08-27T01:48:21.202Z,16.92
2022-08-27T01:52:10.333Z,16.66
2022-08-27T01:53:51.942Z,16.52
2022-08-27T01:55:25.908Z,16.38
2022-08-27T02:02:12.550Z,16.13
2022-08-27T02:05:33.146Z,15.73
2022-08-27T02:07:08.069Z,15.62
2022-08-27T02:08:49.928Z,15.55
2022-08-27T02:10:09.845Z,15.51
2022-08-27T02:11:33.652Z,15.49
2022-08-27T02:14:49.644Z,15.41
2022-08-27T02:15:58.775Z,15.37
2022-08-27T02:17:54.132Z,15.31
2022-08-27T02:18:58.802Z,15.30
2022-08-27T02:20:29.261Z,15.25
2022-08-27T02:21:35.289Z,15.25
2022-08-27T02:24:04.609Z,15.22
2022-08-27T02:25:26.335Z,15.19
2022-08-27T02:28:55.392Z,15.07
2022-08-27T02:30:28.340Z,15.03
2022-08-27T02:32:17.669Z,14.98
2022-08-27T02:33:45.380Z,14.88
2022-08-27T02:35:53.759Z,14.85
2022-08-27T02:37:04.662Z,14.83
2022-08-27T02:38:14.565Z,14.80
2022-08-27T02:42:24.567Z,14.73
2022-08-27T02:44:28.580Z,14.71
2022-08-27T02:45:35.607Z,14.67
2022-08-27T02:48:44.730Z,14.60
2022-08-27T02:50:00.451Z,14.58
2022-08-27T02:51:09.835Z,14.58
2022-08-27T02:52:25.390Z,14.59
2022-08-27T02:54:24.322Z,14.57
2022-08-27T02:55:33.981Z,14.52
2022-08-27T02:56:49.799Z,14.50
2022-08-27T02:57:57.831Z,14.50
2022-08-27T02:59:08.342Z,14.51
2022-08-27T03:00:22.140Z,14.48
2022-08-27T03:01:35.326Z,14.47
2022-08-27T03:03:21.819Z,14.45
2022-08-27T03:04:36.890Z,14.43
2022-08-27T03:05:41.713Z,14.44
2022-08-27T03:06:47.511Z,14.45
2022-08-27T03:07:59.964Z,14.45
2022-08-27T03:10:21.522Z,14.44
2022-08-27T03:11:27.250Z,14.36
2022-08-27T03:12:32.802Z,14.31
2022-08-27T03:13:38.599Z,14.28
2022-08-27T03:14:49.950Z,14.26
2022-08-27T03:15:56.451Z,14.25
2022-08-27T03:17:21.934Z,14.23
2022-08-27T03:18:33.013Z,14.18
2022-08-27T03:19:42.659Z,14.20
2022-08-27T03:20:49.444Z,14.21
2022-08-27T03:21:54.747Z,14.22
2022-08-27T03:23:01.153Z,14.24
2022-08-27T03:24:11.088Z,14.23
2022-08-27T03:25:18.533Z,14.26
2022-08-27T03:26:23.840Z,14.24
2022-08-27T03:27:29.363Z,14.22
2022-08-27T03:28:37.873Z,14.20
2022-08-27T03:29:41.878Z,14.19
2022-08-27T03:30:52.297Z,14.18
2022-08-27T03:31:57.023Z,14.14
2022-08-27T03:33:01.815Z,14.12
2022-08-27T03:34:09.849Z,14.08
2022-08-27T03:35:14.342Z,14.08
2022-08-27T03:36:19.640Z,14.08
2022-08-27T03:37:23.368Z,14.05
2022-08-27T03:38:28.071Z,14.02
2022-08-27T03:39:32.000Z,13.99
2022-08-27T03:40:36.923Z,13.97
2022-08-27T03:41:54.663Z,13.96
2022-08-27T03:43:01.831Z,13.93
2022-08-27T03:44:09.045Z,13.92
2022-08-27T03:45:14.337Z,13.93
2022-08-27T03:46:17.905Z,13.93
2022-08-27T03:47:23.037Z,13.93
2022-08-27T03:48:26.812Z,13.92
2022-08-27T03:49:32.042Z,13.91
2022-08-27T03:50:38.703Z,13.90
2022-08-27T03:51:43.952Z,13.90
2022-08-27T03:52:47.839Z,13.91
2022-08-27T03:53:53.123Z,13.92
2022-08-27T03:54:56.703Z,13.93
2022-08-27T03:56:01.403Z,13.95
2022-08-27T03:57:06.148Z,13.95
2022-08-27T03:58:13.077Z,13.97
2022-08-27T03:59:17.203Z,13.98
2022-08-27T04:00:27.483Z,13.98
2022-08-27T04:01:32.275Z,14.00
2022-08-27T04:02:37.211Z,14.01
2022-08-27T04:03:40.874Z,14.00
2022-08-27T04:04:45.853Z,14.01
2022-08-27T04:05:53.684Z,14.02
2022-08-27T04:07:02.153Z,14.02
2022-08-27T04:08:07.241Z,14.03
2022-08-27T04:09:12.091Z,14.04
2022-08-27T04:10:17.650Z,14.05
2022-08-27T04:11:22.395Z,14.06
2022-08-27T04:12:27.684Z,14.06
2022-08-27T04:13:32.896Z,14.08
2022-08-27T04:14:38.037Z,14.10
2022-08-27T04:15:44.977Z,14.11
2022-08-27T04:16:49.867Z,14.14
2022-08-27T04:17:56.463Z,14.17
2022-08-27T04:19:01.639Z,14.19
2022-08-27T04:20:31.629Z,14.21
2022-08-27T04:21:33.441Z,14.22
2022-08-27T04:22:37.444Z,14.24
2022-08-27T04:23:42.528Z,14.26
2022-08-27T04:24:56.307Z,14.28
2022-08-27T04:26:01.208Z,14.29
2022-08-27T04:27:06.262Z,14.30
2022-08-27T04:28:16.591Z,14.31
2022-08-27T04:29:22.085Z,14.33
2022-08-27T04:30:27.782Z,14.34
2022-08-27T04:31:31.974Z,14.37
2022-08-27T04:32:37.330Z,14.38
2022-08-27T04:33:41.399Z,14.40
2022-08-27T04:34:46.100Z,14.43
2022-08-27T04:36:00.780Z,14.47
2022-08-27T04:37:06.050Z,14.48
2022-08-27T04:38:09.959Z,14.52
2022-08-27T04:39:15.206Z,14.56
2022-08-27T04:40:19.283Z,14.62
2022-08-27T04:41:25.482Z,14.65
2022-08-27T04:42:31.423Z,14.71
2022-08-27T04:43:35.242Z,14.76
2022-08-27T04:44:41.672Z,14.82
2022-08-27T04:45:45.530Z,14.87
2022-08-27T04:46:51.318Z,14.92
2022-08-27T04:47:55.219Z,14.96
2022-08-27T04:49:02.232Z,15.01
2022-08-27T04:50:07.857Z,15.06
2022-08-27T04:51:13.082Z,15.12
2022-08-27T04:52:20.631Z,15.18
2022-08-27T04:53:24.212Z,15.25
2022-08-27T04:54:32.774Z,15.31
2022-08-27T04:55:42.557Z,15.37
2022-08-27T04:56:51.219Z,15.45
2022-08-27T04:57:54.973Z,15.50
2022-08-27T04:58:59.717Z,15.54
2022-08-27T05:00:07.212Z,15.60
2022-08-27T05:01:17.826Z,15.63
2022-08-27T05:02:21.473Z,15.65
2022-08-27T05:03:26.502Z,15.66
2022-08-27T05:04:30.980Z,15.71
2022-08-27T05:05:35.926Z,15.75
2022-08-27T05:06:44.722Z,15.80
2022-08-27T05:07:48.428Z,15.84
2022-08-27T05:08:57.753Z,15.91
2022-08-27T05:10:01.511Z,15.98
2022-08-27T05:11:09.730Z,16.03
2022-08-27T05:12:14.271Z,16.09
2022-08-27T05:13:19.146Z,16.14
2022-08-27T05:14:24.638Z,16.22
2022-08-27T05:15:31.547Z,16.29
2022-08-27T05:16:36.629Z,16.36
2022-08-27T05:17:40.369Z,16.42
2022-08-27T05:18:48.238Z,16.52
2022-08-27T05:19:53.899Z,16.61
2022-08-27T05:20:57.830Z,16.70
2022-08-27T05:22:03.298Z,16.83
2022-08-27T05:23:07.324Z,16.99
2022-08-27T05:24:12.163Z,17.19
2022-08-27T05:25:16.090Z,17.37
2022-08-27T05:26:21.215Z,17.57
2022-08-27T05:27:25.217Z,17.82
2022-08-27T05:28:30.620Z,18.10
2022-08-27T05:29:34.456Z,18.38
2022-08-27T05:30:42.519Z,18.68
2022-08-27T05:31:48.817Z,19.00
2022-08-27T05:32:52.974Z,19.31
2022-08-27T05:33:58.067Z,19.62
2022-08-27T05:35:15.153Z,19.93
2022-08-27T05:36:23.211Z,20.24
2022-08-27T05:37:27.501Z,20.53
2022-08-27T05:38:35.045Z,20.81
2022-08-27T05:39:42.633Z,21.12
2022-08-27T05:40:48.471Z,21.43
2022-08-27T05:41:58.766Z,21.73
2022-08-27T05:43:02.403Z,21.99
2022-08-27T05:44:30.226Z,22.24
2022-08-27T05:45:33.383Z,22.53
2022-08-27T05:46:41.077Z,22.77
2022-08-27T05:48:05.415Z,23.02
2022-08-27T05:49:10.721Z,23.21
2022-08-27T05:50:14.196Z,23.41
2022-08-27T05:51:25.238Z,23.58
2022-08-27T05:52:45.488Z,23.75
2022-08-27T05:53:49.522Z,23.91
2022-08-27T05:54:56.965Z,24.07
2022-08-27T05:56:16.685Z,24.21
2022-08-27T05:57:19.770Z,24.25
2022-08-27T05:58:41.333Z,24.26
2022-08-27T06:00:02.944Z,24.29
2022-08-27T06:01:17.023Z,24.39
2022-08-27T06:02:21.963Z,24.51
2022-08-27T06:03:26.707Z,24.56
2022-08-27T06:04:29.966Z,24.56
2022-08-27T06:05:34.321Z,24.52
2022-08-27T06:06:38.973Z,24.50
2022-08-27T06:07:43.386Z,24.49
2022-08-27T06:08:46.781Z,24.51
2022-08-27T06:09:51.177Z,24.58
2022-08-27T06:10:54.507Z,24.65
2022-08-27T06:12:00.402Z,24.72
2022-08-27T06:13:03.782Z,24.82
2022-08-27T06:14:09.267Z,24.93
2022-08-27T06:15:12.795Z,25.05
2022-08-27T06:16:19.525Z,25.16
2022-08-27T06:17:25.955Z,25.27
2022-08-27T06:18:29.254Z,25.35
2022-08-27T06:19:35.021Z,25.43
2022-08-27T06:20:38.267Z,25.51
2022-08-27T06:21:43.132Z,25.58
2022-08-27T06:22:46.433Z,25.62
2022-08-27T06:23:50.863Z,25.70
2022-08-27T06:24:55.080Z,25.80
2022-08-27T06:25:59.232Z,25.87
2022-08-27T06:27:03.771Z,25.93
2022-08-27T06:28:07.585Z,25.96
2022-08-27T06:29:13.235Z,26.02
2022-08-27T06:30:17.626Z,26.08
2022-08-27T06:31:24.128Z,26.17
2022-08-27T06:32:29.054Z,26.24
2022-08-27T06:33:33.822Z,26.39
2022-08-27T06:34:38.848Z,26.50
2022-08-27T06:35:41.981Z,26.59
2022-08-27T06:36:46.242Z,26.65
2022-08-27T06:37:50.754Z,26.65
2022-08-27T06:38:54.911Z,26.66
2022-08-27T06:39:59.188Z,26.67
2022-08-27T06:41:04.241Z,26.65
2022-08-27T06:42:08.581Z,26.63
2022-08-27T06:43:11.760Z,26.60
2022-08-27T06:44:16.011Z,26.60
2022-08-27T06:45:19.601Z,26.64
2022-08-27T06:46:25.536Z,26.63
2022-08-27T06:47:31.793Z,26.64
2022-08-27T06:48:36.571Z,26.70
2022-08-27T06:49:41.193Z,26.74
2022-08-27T06:50:46.081Z,26.78
2022-08-27T06:51:50.924Z,26.89
2022-08-27T06:52:53.973Z,27.01
2022-08-27T06:54:00.177Z,27.08
2022-08-27T06:55:03.940Z,27.14
2022-08-27T06:56:09.172Z,27.28
2022-08-27T06:57:12.419Z,27.43
2022-08-27T06:58:18.383Z,27.56
2022-08-27T06:59:21.626Z,27.72
2022-08-27T07:00:26.062Z,27.84
2022-08-27T07:01:30.763Z,27.97
2022-08-27T07:02:36.741Z,28.09
2022-08-27T07:03:40.100Z,28.22
2022-08-27T07:04:44.523Z,28.32
2022-08-27T07:05:47.755Z,28.46
2022-08-27T07:06:52.234Z,28.64
2022-08-27T07:07:55.584Z,28.80
2022-08-27T07:09:00.515Z,29.00
2022-08-27T07:10:06.044Z,29.19
2022-08-27T07:11:11.252Z,29.41
2022-08-27T07:12:15.619Z,29.60
2022-08-27T07:13:18.981Z,29.72
2022-08-27T07:14:23.311Z,29.84
2022-08-27T07:15:27.202Z,29.95
2022-08-27T07:16:34.215Z,29.92
2022-08-27T07:17:41.877Z,29.88
2022-08-27T07:18:46.287Z,29.94
2022-08-27T07:19:49.542Z,30.02
2022-08-27T07:20:55.231Z,30.09
2022-08-27T07:21:59.423Z,30.08
2022-08-27T07:23:04.543Z,30.13
2022-08-27T07:24:10.138Z,30.14
2022-08-27T07:25:19.521Z,30.19
2022-08-27T07:26:23.720Z,30.28
2022-08-27T07:27:28.146Z,30.39
2022-08-27T07:28:31.344Z,30.48
2022-08-27T07:29:35.773Z,30.55
2022-08-27T07:30:38.969Z,30.68
2022-08-27T07:31:43.937Z,30.79
2022-08-27T07:32:48.878Z,30.92
2022-08-27T07:33:53.402Z,31.09
2022-08-27T07:34:56.693Z,31.27
2022-08-27T07:36:00.907Z,31.37
2022-08-27T07:37:04.085Z,31.38
2022-08-27T07:38:08.492Z,31.31
2022-08-27T07:39:14.204Z,31.24
2022-08-27T07:40:17.906Z,31.10
2022-08-27T07:41:22.205Z,31.03
2022-08-27T07:42:49.002Z,31.05
2022-08-27T07:44:10.549Z,31.14
2022-08-27T07:45:13.731Z,31.26
2022-08-27T07:46:18.107Z,31.23
2022-08-27T07:47:21.313Z,31.18
2022-08-27T07:48:28.221Z,31.20
2022-08-27T07:49:32.111Z,31.25
2022-08-27T07:50:39.156Z,31.23
2022-08-27T07:51:43.081Z,31.19
2022-08-27T07:52:48.098Z,31.17
2022-08-27T07:53:51.404Z,31.15
2022-08-27T07:54:55.987Z,31.12
2022-08-27T07:56:05.042Z,31.22
2022-08-27T07:57:09.890Z,31.37
2022-08-27T07:58:16.843Z,31.55
2022-08-27T07:59:24.545Z,31.79
2022-08-27T08:00:29.091Z,32.04
2022-08-27T08:01:32.373Z,32.28
2022-08-27T08:02:36.856Z,32.45
2022-08-27T08:03:41.856Z,32.55
2022-08-27T08:04:45.976Z,32.56
2022-08-27T08:05:49.524Z,32.52
2022-08-27T08:06:53.936Z,32.56
2022-08-27T08:07:57.140Z,32.70
2022-08-27T08:09:01.633Z,32.85
2022-08-27T08:10:07.228Z,32.94
2022-08-27T08:11:13.385Z,32.97
2022-08-27T08:12:16.813Z,33.06
2022-08-27T08:13:21.390Z,32.97
2022-08-27T08:14:24.695Z,32.87
2022-08-27T08:15:29.002Z,32.78
2022-08-27T08:16:32.395Z,32.70
2022-08-27T08:17:37.091Z,32.67
2022-08-27T08:18:42.966Z,32.74
2022-08-27T08:19:57.364Z,32.86
2022-08-27T08:21:11.987Z,32.98
2022-08-27T08:22:15.321Z,33.04
2022-08-27T08:23:20.292Z,33.08
2022-08-27T08:24:23.948Z,33.14
2022-08-27T08:25:28.318Z,33.12
2022-08-27T08:26:38.911Z,33.18
2022-08-27T08:27:42.141Z,33.26
2022-08-27T08:28:48.032Z,33.38
2022-08-27T08:29:51.772Z,33.55
2022-08-27T08:30:56.117Z,33.49
2022-08-27T08:31:59.723Z,33.46
2022-08-27T08:33:04.561Z,33.48
2022-08-27T08:34:09.863Z,33.54
2022-08-27T08:35:18.596Z,33.57
2022-08-27T08:36:23.952Z,33.61
2022-08-27T08:37:29.572Z,33.54
2022-08-27T08:38:33.686Z,33.50
2022-08-27T08:39:39.384Z,33.48
2022-08-27T08:40:45.262Z,33.50
2022-08-27T08:41:53.300Z,33.63
2022-08-27T08:42:57.023Z,33.71
2022-08-27T08:44:05.499Z,33.65
2022-08-27T08:45:09.419Z,33.56
2022-08-27T08:46:22.304Z,33.40
2022-08-27T08:47:28.652Z,33.32
2022-08-27T08:48:34.925Z,33.30
2022-08-27T08:49:45.196Z,33.26
2022-08-27T08:50:55.812Z,33.25
2022-08-27T08:52:08.969Z,33.30
2022-08-27T08:53:20.324Z,33.30
2022-08-27T08:54:24.436Z,33.32
2022-08-27T08:55:39.370Z,33.38
2022-08-27T08:56:52.972Z,33.42
2022-08-27T08:58:11.814Z,33.40
2022-08-27T08:59:19.422Z,33.36
2022-08-27T09:00:24.501Z,33.36
2022-08-27T09:01:29.417Z,33.37
2022-08-27T09:02:33.301Z,33.42
2022-08-27T09:03:42.425Z,33.61
2022-08-27T09:04:48.435Z,33.77
2022-08-27T09:05:56.645Z,33.91
2022-08-27T09:07:05.894Z,33.97
2022-08-27T09:08:33.092Z,34.12
2022-08-27T09:09:44.247Z,34.14
2022-08-27T09:10:51.820Z,34.02
2022-08-27T09:12:01.439Z,33.92
2022-08-27T09:13:07.921Z,33.86
2022-08-27T09:14:25.007Z,33.80
2022-08-27T09:15:30.284Z,33.81
2022-08-27T09:16:34.552Z,33.87
2022-08-27T09:17:44.634Z,33.94
2022-08-27T09:18:52.322Z,34.00
2022-08-27T09:19:58.083Z,34.11
2022-08-27T09:21:09.952Z,34.10
2022-08-27T09:22:19.525Z,34.18
2022-08-27T09:23:27.573Z,34.20
2022-08-27T09:24:38.319Z,34.22
2022-08-27T09:25:45.032Z,34.36
2022-08-27T09:26:48.582Z,34.67
2022-08-27T09:27:55.027Z,34.89
2022-08-27T09:29:20.441Z,35.10
2022-08-27T09:30:30.365Z,35.34
2022-08-27T09:31:40.922Z,35.45
2022-08-27T09:32:45.210Z,35.59
2022-08-27T09:33:56.215Z,35.59
2022-08-27T09:35:07.706Z,35.64
2022-08-27T09:36:13.816Z,35.72
2022-08-27T09:37:21.201Z,35.89
2022-08-27T09:38:28.286Z,35.92
2022-08-27T09:39:39.992Z,35.93
2022-08-27T09:40:46.806Z,35.82
2022-08-27T09:41:51.667Z,35.73
2022-08-27T09:42:58.532Z,35.74
2022-08-27T09:44:03.745Z,35.70
2022-08-27T09:45:12.004Z,35.72
2022-08-27T09:46:22.004Z,35.69
2022-08-27T09:47:29.386Z,35.70
2022-08-27T09:48:33.980Z,35.78
2022-08-27T09:49:39.020Z,35.72
2022-08-27T09:50:47.564Z,35.63
2022-08-27T09:51:56.239Z,35.65
2022-08-27T09:53:01.284Z,35.71
2022-08-27T09:54:07.055Z,35.65
2022-08-27T09:55:12.030Z,35.65
2022-08-27T09:56:24.005Z,35.65
2022-08-27T09:57:35.821Z,35.64
2022-08-27T09:58:50.702Z,35.58
2022-08-27T09:59:56.142Z,35.53
2022-08-27T10:01:02.495Z,35.51
2022-08-27T10:02:14.619Z,35.61
2022-08-27T10:03:23.664Z,35.74
2022-08-27T10:04:34.206Z,35.87
2022-08-27T10:05:52.313Z,35.85
2022-08-27T10:07:15.924Z,35.83
2022-08-27T10:08:28.713Z,35.81
2022-08-27T10:09:47.301Z,35.78
2022-08-27T10:10:56.190Z,35.79
2022-08-27T10:12:08.881Z,36.00
2022-08-27T10:13:18.110Z,36.03
2022-08-27T10:14:24.811Z,35.95
2022-08-27T10:15:33.166Z,35.97
2022-08-27T10:16:56.082Z,35.90
2022-08-27T10:18:03.130Z,35.84
2022-08-27T10:19:18.004Z,35.82
2022-08-27T10:20:30.023Z,35.94
2022-08-27T10:21:42.522Z,36.04
2022-08-27T10:22:53.422Z,36.00
2022-08-27T10:24:08.250Z,35.92
2022-08-27T10:25:19.944Z,35.70
2022-08-27T10:26:29.686Z,35.67
2022-08-27T10:27:43.291Z,35.60
2022-08-27T10:28:58.721Z,35.52
2022-08-27T10:30:08.020Z,35.55
2022-08-27T10:31:19.643Z,35.58
2022-08-27T10:32:35.565Z,35.60
2022-08-27T10:33:44.897Z,35.57
2022-08-27T10:34:55.967Z,35.51
2022-08-27T10:36:03.965Z,35.40
2022-08-27T10:37:19.831Z,35.32
2022-08-27T10:38:32.513Z,35.34
2022-08-27T10:39:51.015Z,35.38
2022-08-27T10:41:00.541Z,35.47
2022-08-27T10:42:10.831Z,35.51
2022-08-27T10:43:30.465Z,35.47
2022-08-27T10:44:48.780Z,35.39
2022-08-27T10:45:58.239Z,35.40
2022-08-27T10:47:12.381Z,35.35
2022-08-27T10:48:24.676Z,35.37
2022-08-27T10:49:36.578Z,35.38
2022-08-27T10:50:44.515Z,35.35
2022-08-27T10:51:53.771Z,35.24
2022-08-27T10:53:01.990Z,35.03
2022-08-27T10:54:12.421Z,34.76
2022-08-27T10:55:24.151Z,34.59
2022-08-27T10:56:33.495Z,34.55
2022-08-27T10:58:01.234Z,34.60
2022-08-27T10:59:16.860Z,34.64
2022-08-27T11:00:22.062Z,34.69
2022-08-27T11:01:32.250Z,34.77
2022-08-27T11:02:43.102Z,34.91
2022-08-27T11:03:50.124Z,35.12
2022-08-27T11:04:56.910Z,35.28
2022-08-27T11:06:02.632Z,35.33
2022-08-27T11:07:10.178Z,35.37
2022-08-27T11:08:17.733Z,35.41
2022-08-27T11:09:24.323Z,35.47
2022-08-27T11:10:30.027Z,35.43
2022-08-27T11:12:12.614Z,35.47
2022-08-27T11:13:08.139Z,35.63
2022-08-27T11:14:20.631Z,35.71
2022-08-27T11:15:29.629Z,35.91
2022-08-27T11:16:41.242Z,36.16
2022-08-27T11:17:51.963Z,36.37
2022-08-27T11:18:59.133Z,36.67
2022-08-27T11:20:08.682Z,36.89
2022-08-27T11:21:15.432Z,37.11
2022-08-27T11:22:26.000Z,37.26
2022-08-27T11:23:37.324Z,37.24
2022-08-27T11:24:46.148Z,37.19
2022-08-27T11:25:53.663Z,37.14
2022-08-27T11:26:59.083Z,37.21
2022-08-27T11:28:03.821Z,37.37
2022-08-27T11:29:17.002Z,37.61
2022-08-27T11:30:25.780Z,37.84
2022-08-27T11:31:35.560Z,37.98
2022-08-27T11:32:46.851Z,37.93
2022-08-27T11:34:06.172Z,37.69
2022-08-27T11:35:15.861Z,37.34
2022-08-27T11:36:45.329Z,37.12
2022-08-27T11:38:38.670Z,37.20
2022-08-27T11:39:58.077Z,37.17
2022-08-27T11:41:15.800Z,37.22
2022-08-27T11:42:25.650Z,37.38
2022-08-27T11:43:34.241Z,37.54
2022-08-27T11:44:42.936Z,37.75
2022-08-27T11:45:58.084Z,37.81
2022-08-27T11:47:13.097Z,37.81
2022-08-27T11:48:19.962Z,37.80
2022-08-27T11:49:26.900Z,37.85
2022-08-27T11:50:32.334Z,37.79
2022-08-27T11:51:37.285Z,37.79
2022-08-27T11:52:42.930Z,37.80
2022-08-27T11:53:57.027Z,37.93
2022-08-27T11:55:15.541Z,37.96
2022-08-27T11:56:34.012Z,38.03
2022-08-27T11:57:38.920Z,38.08
2022-08-27T11:58:52.858Z,38.14
2022-08-27T11:59:57.820Z,38.12
2022-08-27T12:01:04.590Z,37.97
2022-08-27T12:02:20.686Z,37.90
2022-08-27T12:03:32.505Z,37.98
2022-08-27T12:04:39.402Z,38.10
2022-08-27T12:05:45.968Z,38.17
2022-08-27T12:06:53.431Z,38.18
2022-08-27T12:07:57.881Z,38.21
2022-08-27T12:09:08.321Z,38.27
2022-08-27T12:10:24.992Z,38.33
2022-08-27T12:11:37.573Z,38.27
2022-08-27T12:12:53.869Z,38.25
2022-08-27T12:14:04.607Z,38.22
2022-08-27T12:15:15.221Z,38.25
2022-08-27T12:16:27.721Z,38.37
2022-08-27T12:17:39.076Z,38.33
2022-08-27T12:18:52.362Z,38.37
2022-08-27T12:20:07.042Z,38.40
2022-08-27T12:21:17.601Z,38.48
2022-08-27T12:22:33.395Z,38.62
2022-08-27T12:23:45.363Z,38.85
2022-08-27T12:24:55.515Z,38.96
2022-08-27T12:26:12.204Z,39.14
2022-08-27T12:27:28.516Z,39.36
2022-08-27T12:28:32.259Z,39.47
2022-08-27T12:29:44.073Z,39.50
2022-08-27T12:30:49.651Z,39.48
2022-08-27T12:31:57.298Z,39.34
2022-08-27T12:33:10.557Z,39.16
2022-08-27T12:34:15.771Z,38.97
2022-08-27T12:35:25.064Z,38.84
2022-08-27T12:36:33.892Z,38.81
2022-08-27T12:37:44.239Z,38.81
2022-08-27T12:38:50.876Z,38.84
2022-08-27T12:39:58.790Z,38.80
2022-08-27T12:41:08.996Z,38.79
2022-08-27T12:42:17.774Z,38.78
2022-08-27T12:43:22.912Z,38.62
2022-08-27T12:44:30.843Z,38.52
2022-08-27T12:45:34.131Z,38.45
2022-08-27T12:46:45.077Z,38.52
2022-08-27T12:48:11.120Z,38.72
2022-08-27T12:49:38.002Z,38.93
2022-08-27T12:50:41.663Z,39.19
2022-08-27T12:51:45.706Z,39.49
2022-08-27T12:53:10.313Z,39.91
2022-08-27T12:54:34.523Z,40.35
2022-08-27T12:56:00.267Z,40.64
2022-08-27T12:57:19.768Z,41.00
2022-08-27T12:58:45.933Z,41.10
2022-08-27T13:00:14.386Z,41.03
2022-08-27T13:01:37.552Z,40.88
2022-08-27T13:03:07.228Z,40.75
2022-08-27T13:04:21.002Z,40.79
2022-08-27T13:05:24.809Z,40.91
2022-08-27T13:06:31.263Z,40.87
2022-08-27T13:07:39.461Z,40.87
2022-08-27T13:08:43.755Z,40.85
2022-08-27T13:09:47.008Z,40.96
2022-08-27T13:10:51.931Z,41.02
2022-08-27T13:11:57.111Z,40.86
2022-08-27T13:13:11.553Z,40.76
2022-08-27T13:14:20.141Z,40.66
2022-08-27T13:15:23.305Z,40.51
2022-08-27T13:16:29.620Z,40.45
2022-08-27T13:17:32.866Z,40.52
2022-08-27T13:18:37.742Z,40.47
2022-08-27T13:19:49.431Z,40.28
2022-08-27T13:21:02.632Z,40.23
2022-08-27T13:22:07.401Z,40.25
2022-08-27T13:23:20.176Z,40.27
2022-08-27T13:24:30.644Z,40.23
2022-08-27T13:25:35.700Z,40.16
2022-08-27T13:26:40.069Z,40.10
2022-08-27T13:27:52.897Z,40.21
2022-08-27T13:29:03.058Z,40.23
2022-08-27T13:30:09.403Z,40.24
2022-08-27T13:31:13.771Z,40.08
2022-08-27T13:32:17.083Z,39.78
2022-08-27T13:33:24.125Z,39.50
2022-08-27T13:34:29.750Z,39.41
2022-08-27T13:35:33.385Z,39.32
2022-08-27T13:36:58.337Z,39.33
2022-08-27T13:38:02.893Z,39.44
2022-08-27T13:39:08.245Z,39.40
2022-08-27T13:40:22.713Z,39.40
2022-08-27T13:41:31.378Z,39.19
2022-08-27T13:42:34.650Z,38.99
2022-08-27T13:43:42.627Z,38.92
2022-08-27T13:44:48.230Z,38.99
2022-08-27T13:45:59.557Z,39.07
2022-08-27T13:47:07.672Z,38.99
2022-08-27T13:48:12.200Z,38.96
2022-08-27T13:49:19.475Z,39.13
2022-08-27T13:50:24.869Z,39.33
2022-08-27T13:51:31.102Z,39.48
2022-08-27T13:52:36.773Z,39.57
2022-08-27T13:54:02.843Z,39.65
2022-08-27T13:55:09.692Z,39.74
2022-08-27T13:56:25.482Z,39.82
2022-08-27T13:57:31.912Z,39.68
2022-08-27T13:58:35.894Z,39.39
2022-08-27T13:59:42.984Z,39.18
2022-08-27T14:00:48.097Z,38.84
2022-08-27T14:01:58.120Z,38.37
2022-08-27T14:03:03.732Z,37.97
2022-08-27T14:04:09.772Z,37.56
2022-08-27T14:05:16.587Z,37.06
2022-08-27T14:06:35.576Z,36.62
2022-08-27T14:07:45.815Z,36.11
2022-08-27T14:08:49.324Z,35.64
2022-08-27T14:09:56.691Z,35.20
2022-08-27T14:11:02.085Z,34.82
2022-08-27T14:12:08.442Z,34.55
2022-08-27T14:13:19.779Z,34.25
2022-08-27T14:14:24.173Z,33.92
2022-08-27T14:15:33.212Z,33.61
2022-08-27T14:16:40.056Z,33.36
2022-08-27T14:17:46.336Z,33.16
2022-08-27T14:18:59.232Z,32.97
2022-08-27T14:20:04.607Z,32.82
2022-08-27T14:21:10.213Z,32.63
2022-08-27T14:22:14.557Z,32.52
2022-08-27T14:23:17.903Z,32.38
2022-08-27T14:24:22.727Z,32.26
2022-08-27T14:25:26.152Z,32.10
2022-08-27T14:26:30.842Z,32.01
2022-08-27T14:27:36.453Z,31.93
2022-08-27T14:28:40.653Z,31.84
2022-08-27T14:29:43.897Z,31.71
2022-08-27T14:30:52.043Z,31.62
2022-08-27T14:32:02.569Z,31.57
2022-08-27T14:33:06.048Z,31.51
2022-08-27T14:34:10.370Z,31.41
2022-08-27T14:35:13.623Z,31.34
2022-08-27T14:36:31.501Z,31.26
2022-08-27T14:37:35.220Z,31.18
2022-08-27T14:38:41.880Z,31.12
2022-08-27T14:39:45.270Z,31.03
2022-08-27T14:40:53.682Z,30.93
2022-08-27T14:41:58.001Z,30.84
2022-08-27T14:43:02.487Z,30.77
2022-08-27T14:44:13.975Z,30.67
2022-08-27T14:45:17.730Z,30.55
2022-08-27T14:46:26.160Z,30.45
2022-08-27T14:47:33.783Z,30.32
2022-08-27T14:48:38.441Z,30.20
2022-08-27T14:49:46.942Z,30.09
2022-08-27T14:50:50.332Z,30.00
2022-08-27T14:51:54.853Z,29.91
2022-08-27T14:52:58.186Z,29.79
2022-08-27T14:54:03.639Z,29.67
2022-08-27T14:55:10.537Z,29.54
2022-08-27T14:56:15.341Z,29.44
2022-08-27T14:57:19.689Z,29.35
2022-08-27T14:58:24.671Z,29.25
2022-08-27T14:59:27.902Z,29.17
2022-08-27T15:00:32.333Z,29.10
2022-08-27T15:01:37.519Z,29.04
2022-08-27T15:02:48.513Z,28.97
2022-08-27T15:03:52.245Z,28.92
2022-08-27T15:04:56.816Z,28.90
2022-08-27T15:06:00.087Z,28.87
2022-08-27T15:07:05.365Z,28.83
2022-08-27T15:08:13.094Z,28.80
2022-08-27T15:09:17.742Z,28.79
2022-08-27T15:10:21.094Z,28.77
2022-08-27T15:11:27.035Z,28.77
2022-08-27T15:12:31.170Z,28.74
2022-08-27T15:13:34.283Z,28.71
2022-08-27T15:14:43.560Z,28.69
2022-08-27T15:15:46.738Z,28.70
2022-08-27T15:16:52.991Z,28.72
2022-08-27T15:17:57.525Z,28.71
2022-08-27T15:19:02.379Z,28.71
2022-08-27T15:20:08.534Z,28.71
2022-08-27T15:21:13.322Z,28.71
2022-08-27T15:22:21.440Z,28.71
2022-08-27T15:23:25.698Z,28.67
2022-08-27T15:24:32.811Z,28.63
2022-08-27T15:25:37.115Z,28.59
2022-08-27T15:26:40.422Z,28.51
2022-08-27T15:27:44.687Z,28.48
2022-08-27T15:28:48.951Z,28.42
2022-08-27T15:29:54.182Z,28.42
2022-08-27T15:30:58.951Z,28.41
2022-08-27T15:32:02.383Z,28.41
2022-08-27T15:33:08.605Z,28.42
2022-08-27T15:34:13.832Z,28.39
2022-08-27T15:35:20.327Z,28.35
2022-08-27T15:36:25.552Z,28.34
2022-08-27T15:37:30.843Z,28.35
2022-08-27T15:38:35.525Z,28.34
2022-08-27T15:39:38.744Z,28.34
2022-08-27T15:40:43.194Z,28.34
2022-08-27T15:42:03.369Z,28.35
2022-08-27T15:43:10.956Z,28.34
2022-08-27T15:44:14.394Z,28.38
2022-08-27T15:45:19.040Z,28.41
2022-08-27T15:46:26.615Z,28.41
2022-08-27T15:47:30.006Z,28.41
2022-08-27T15:48:36.132Z,28.40
2022-08-27T15:49:41.013Z,28.40
2022-08-27T15:50:45.186Z,28.37
2022-08-27T15:51:48.398Z,28.34
2022-08-27T15:52:53.790Z,28.29
2022-08-27T15:53:57.227Z,28.23
2022-08-27T15:55:01.502Z,28.18
2022-08-27T15:56:08.414Z,28.14
2022-08-27T15:57:12.170Z,28.11
2022-08-27T15:58:16.378Z,28.07
2022-08-27T15:59:19.503Z,28.05
2022-08-27T16:00:24.762Z,28.04
2022-08-27T16:01:30.930Z,28.03